createdAt,value
2018-07-30T00:00:23.666Z,62.00
2018-07-30T00:02:51.514Z,62.40
2018-07-30T00:05:19.676Z,62.90
2018-07-30T00:07:54.905Z,64.30
2018-07-30T00:10:22.745Z,65.60
2018-07-30T00:12:50.694Z,66.40
2018-07-30T00:15:18.596Z,66.20
2018-07-30T00:17:46.453Z,67.10
2018-07-30T00:20:14.320Z,67.60
2018-07-30T00:22:42.170Z,65.80
2018-07-30T00:25:10.158Z,65.60
2018-07-30T00:27:50.387Z,65.30
2018-07-30T00:30:18.187Z,65.10
2018-07-30T00:32:46.106Z,63.50
2018-07-30T00:35:14.034Z,64.00
2018-07-30T00:37:41.961Z,65.60
2018-07-30T00:40:15.941Z,65.50
2018-07-30T00:42:46.145Z,63.40
2018-07-30T00:45:14.138Z,61.90
2018-07-30T00:47:45.455Z,61.50
2018-07-30T00:50:13.388Z,62.00
2018-07-30T00:52:41.344Z,60.60
2018-07-30T00:55:09.298Z,61.50
2018-07-30T00:57:37.522Z,61.20
2018-07-30T01:00:06.417Z,60.90
2018-07-30T01:02:34.257Z,60.30
2018-07-30T01:05:12.962Z,60.40
2018-07-30T01:07:40.907Z,60.50
2018-07-30T01:10:08.883Z,61.20
2018-07-30T01:12:36.807Z,60.70
2018-07-30T01:15:05.332Z,60.30
2018-07-30T01:17:33.201Z,60.30
2018-07-30T01:20:01.038Z,60.20
2018-07-30T01:22:30.569Z,61.10
2018-07-30T01:24:58.501Z,60.50
2018-07-30T01:27:26.421Z,60.10
2018-07-30T01:29:57.484Z,60.90
2018-07-30T01:32:25.979Z,61.00
2018-07-30T01:34:53.922Z,60.90
2018-07-30T01:37:21.818Z,59.70
2018-07-30T01:39:49.747Z,59.30
2018-07-30T01:42:17.577Z,59.20
2018-07-30T01:44:45.397Z,59.30
2018-07-30T01:47:13.266Z,59.60
2018-07-30T01:49:41.213Z,59.70
2018-07-30T01:52:09.133Z,59.30
2018-07-30T01:57:21.115Z,58.90
2018-07-30T01:59:48.851Z,59.00
2018-07-30T02:02:16.722Z,59.90
2018-07-30T02:04:44.612Z,59.30
2018-07-30T02:09:40.365Z,58.30
2018-07-30T02:12:08.341Z,58.60
2018-07-30T02:14:36.294Z,58.90
2018-07-30T02:17:04.107Z,58.70
2018-07-30T02:19:32.010Z,61.80
2018-07-30T02:22:00.867Z,60.80
2018-07-30T02:24:29.015Z,59.20
2018-07-30T02:26:56.802Z,59.70
2018-07-30T02:29:25.031Z,59.50
2018-07-30T02:31:52.744Z,58.20
2018-07-30T02:34:21.350Z,58.60
2018-07-30T02:36:49.539Z,58.80
2018-07-30T02:39:17.399Z,59.90
2018-07-30T02:41:45.238Z,60.90
2018-07-30T02:44:13.035Z,61.70
2018-07-30T02:46:40.871Z,60.70
2018-07-30T02:52:07.120Z,59.90
2018-07-30T02:54:34.864Z,60.30
2018-07-30T02:57:02.743Z,62.10
2018-07-30T02:59:30.594Z,62.30
2018-07-30T03:01:58.369Z,61.80
2018-07-30T03:04:26.267Z,62.40
2018-07-30T03:06:54.657Z,63.30
2018-07-30T03:09:22.545Z,63.80
2018-07-30T03:11:51.239Z,65.20
2018-07-30T03:14:19.110Z,64.90
2018-07-30T03:16:47.085Z,65.70
2018-07-30T03:19:15.142Z,65.50
2018-07-30T03:21:43.017Z,66.40
2018-07-30T03:24:11.007Z,66.70
2018-07-30T03:26:38.969Z,67.00
2018-07-30T03:29:06.876Z,67.80
2018-07-30T03:31:34.699Z,67.40
2018-07-30T03:34:02.890Z,67.00
2018-07-30T03:36:30.729Z,66.90
2018-07-30T03:38:58.569Z,68.10
2018-07-30T03:41:26.493Z,67.50
2018-07-30T03:43:54.367Z,67.40
2018-07-30T03:46:22.275Z,67.50
2018-07-30T03:48:50.102Z,67.30
2018-07-30T03:51:17.891Z,67.70
2018-07-30T03:53:45.889Z,67.50
2018-07-30T03:56:13.814Z,67.40
2018-07-30T03:58:41.718Z,67.60
2018-07-30T04:01:09.709Z,67.60
2018-07-30T04:03:38.043Z,68.20
2018-07-30T04:06:06.150Z,67.90
2018-07-30T04:08:34.001Z,68.00
2018-07-30T04:11:05.685Z,68.80
2018-07-30T04:13:33.543Z,68.10
2018-07-30T04:16:01.514Z,68.10
2018-07-30T04:18:29.386Z,67.40
2018-07-30T04:20:57.173Z,67.70
2018-07-30T04:23:25.094Z,67.50
2018-07-30T04:25:52.885Z,67.40
2018-07-30T04:28:20.788Z,67.10
2018-07-30T04:30:48.693Z,67.50
2018-07-30T04:33:16.508Z,67.10
2018-07-30T04:35:44.381Z,67.20
2018-07-30T04:38:12.249Z,66.90
2018-07-30T04:40:40.218Z,67.30
2018-07-30T04:43:17.728Z,67.20
2018-07-30T04:45:45.636Z,67.10
2018-07-30T04:48:13.545Z,67.20
2018-07-30T04:50:41.510Z,67.20
2018-07-30T04:53:09.342Z,67.30
2018-07-30T04:55:37.228Z,66.90
2018-07-30T04:58:05.111Z,66.80
2018-07-30T05:00:32.929Z,66.80
2018-07-30T05:03:07.954Z,67.10
2018-07-30T05:05:37.388Z,67.00
2018-07-30T05:08:05.370Z,67.50
2018-07-30T05:10:33.317Z,67.10
2018-07-30T05:13:01.346Z,67.10
2018-07-30T05:15:29.055Z,67.10
2018-07-30T05:18:12.856Z,67.30
2018-07-30T05:20:40.840Z,67.30
2018-07-30T05:25:36.606Z,66.70
2018-07-30T05:28:07.834Z,66.70
2018-07-30T05:30:36.739Z,66.20
2018-07-30T05:33:04.674Z,66.60
2018-07-30T05:35:32.525Z,66.40
2018-07-30T05:40:33.512Z,64.90
2018-07-30T05:43:02.176Z,64.90
2018-07-30T05:45:30.076Z,65.80
2018-07-30T05:48:14.359Z,65.20
2018-07-30T05:50:42.296Z,63.80
2018-07-30T05:53:10.296Z,63.30
2018-07-30T05:55:38.254Z,64.60
2018-07-30T05:58:06.596Z,62.30
2018-07-30T06:00:34.458Z,61.50
2018-07-30T06:03:02.349Z,60.80
2018-07-30T06:05:30.307Z,60.70
2018-07-30T06:07:58.222Z,60.70
2018-07-30T06:10:31.370Z,59.90
2018-07-30T06:12:59.356Z,60.40
2018-07-30T06:15:27.249Z,60.20
2018-07-30T06:17:55.154Z,60.70
2018-07-30T06:20:23.006Z,59.60
2018-07-30T06:22:50.915Z,59.70
2018-07-30T06:25:19.235Z,59.90
2018-07-30T06:27:47.206Z,58.80
2018-07-30T06:30:15.130Z,58.70
2018-07-30T06:32:43.045Z,57.90
2018-07-30T06:35:11.003Z,57.10
2018-07-30T06:37:38.834Z,57.10
2018-07-30T06:40:06.723Z,53.40
2018-07-30T06:42:34.695Z,52.90
2018-07-30T06:45:02.573Z,48.60
2018-07-30T06:47:30.327Z,46.30
2018-07-30T06:50:00.176Z,45.40
2018-07-30T06:52:28.143Z,43.60
2018-07-30T06:54:56.044Z,42.40
2018-07-30T06:57:23.789Z,43.20
2018-07-30T06:59:52.793Z,42.10
2018-07-30T07:02:20.604Z,40.60
2018-07-30T07:04:48.412Z,40.90
2018-07-30T07:07:16.272Z,39.50
2018-07-30T07:09:45.309Z,38.70
2018-07-30T07:12:13.304Z,37.70
2018-07-30T07:14:41.182Z,39.80
2018-07-30T07:17:09.653Z,38.50
2018-07-30T07:19:37.846Z,39.70
2018-07-30T07:22:06.141Z,39.20
2018-07-30T07:24:33.967Z,38.90
2018-07-30T07:27:20.138Z,38.90
2018-07-30T07:29:48.072Z,39.90
2018-07-30T07:32:16.112Z,39.90
2018-07-30T07:34:54.035Z,39.30
2018-07-30T07:37:21.890Z,38.90
2018-07-30T07:39:49.688Z,38.00
2018-07-30T07:44:46.280Z,38.80
2018-07-30T07:47:14.179Z,38.30
2018-07-30T07:49:42.106Z,38.10
2018-07-30T07:52:09.977Z,37.20
2018-07-30T07:54:37.934Z,37.70
2018-07-30T07:57:08.284Z,36.10
2018-07-30T07:59:36.330Z,35.40
2018-07-30T08:02:04.229Z,36.40
2018-07-30T08:04:32.167Z,36.30
2018-07-30T08:07:00.049Z,36.00
2018-07-30T08:09:27.974Z,34.80
2018-07-30T08:11:56.701Z,35.50
2018-07-30T08:14:24.468Z,35.00
2018-07-30T08:16:52.410Z,35.30
2018-07-30T08:19:20.227Z,34.50
2018-07-30T08:21:48.044Z,34.00
2018-07-30T08:24:16.001Z,34.50
2018-07-30T08:26:43.897Z,33.10
2018-07-30T08:29:11.811Z,33.70
2018-07-30T08:31:39.802Z,33.80
2018-07-30T08:34:12.718Z,34.20
2018-07-30T08:36:40.730Z,33.90
2018-07-30T08:39:10.189Z,33.10
2018-07-30T08:41:38.615Z,32.90
2018-07-30T08:44:06.756Z,32.40
2018-07-30T08:49:02.370Z,33.50
2018-07-30T08:51:30.301Z,32.20
2018-07-30T08:53:58.174Z,32.00
2018-07-30T08:56:26.134Z,32.50
2018-07-30T08:58:54.036Z,32.20
2018-07-30T09:01:21.955Z,32.10
2018-07-30T09:03:49.907Z,32.10
2018-07-30T09:06:17.717Z,31.40
2018-07-30T09:08:45.674Z,31.90
2018-07-30T09:11:13.607Z,32.30
2018-07-30T09:13:41.454Z,31.20
2018-07-30T09:16:09.494Z,31.20
2018-07-30T09:18:37.584Z,30.40
2018-07-30T09:23:33.231Z,30.40
2018-07-30T09:26:01.169Z,31.00
2018-07-30T09:28:29.158Z,30.40
2018-07-30T09:30:57.170Z,30.30
2018-07-30T09:33:25.184Z,30.20
2018-07-30T09:35:53.187Z,30.90
2018-07-30T09:38:20.939Z,30.50
2018-07-30T09:40:48.781Z,30.70
2018-07-30T09:43:16.863Z,31.60
2018-07-30T09:45:44.696Z,32.80
2018-07-30T09:48:12.923Z,33.30
2018-07-30T09:50:41.093Z,32.20
2018-07-30T09:53:09.287Z,31.40
2018-07-30T09:55:37.249Z,32.20
2018-07-30T09:58:05.150Z,32.10
2018-07-30T10:00:38.585Z,31.30
2018-07-30T10:03:06.355Z,31.10
2018-07-30T10:05:34.143Z,31.80
2018-07-30T10:08:01.965Z,31.70
2018-07-30T10:10:29.916Z,31.30
2018-07-30T10:12:57.760Z,31.40
2018-07-30T10:15:25.707Z,30.10
2018-07-30T10:17:53.690Z,31.00
2018-07-30T10:20:23.461Z,29.90
2018-07-30T10:22:51.173Z,30.30
2018-07-30T10:25:18.895Z,30.40
2018-07-30T10:27:46.781Z,30.50
2018-07-30T10:30:14.658Z,30.80
2018-07-30T10:32:42.424Z,29.30
2018-07-30T10:35:10.391Z,29.30
2018-07-30T10:37:38.386Z,29.70
2018-07-30T10:40:06.330Z,28.60
2018-07-30T10:42:38.443Z,29.40
2018-07-30T10:45:06.410Z,29.40
2018-07-30T10:47:34.232Z,29.70
2018-07-30T10:50:02.390Z,30.90
2018-07-30T10:52:30.299Z,29.80
2018-07-30T10:55:06.063Z,31.50
2018-07-30T10:57:33.896Z,31.50
2018-07-30T11:00:01.829Z,31.70
2018-07-30T11:02:29.627Z,31.10
2018-07-30T11:04:57.485Z,31.90
2018-07-30T11:07:25.410Z,31.70
2018-07-30T11:09:53.199Z,30.90
2018-07-30T11:12:21.246Z,30.40
2018-07-30T11:14:49.187Z,30.40
2018-07-30T11:17:16.989Z,29.50
2018-07-30T11:19:45.875Z,29.60
2018-07-30T11:22:13.733Z,29.60
2018-07-30T11:24:41.712Z,29.50
2018-07-30T11:27:09.630Z,30.00
2018-07-30T11:29:37.684Z,30.00
2018-07-30T11:32:05.625Z,31.50
2018-07-30T11:34:33.585Z,30.20
2018-07-30T11:37:01.431Z,30.70
2018-07-30T11:39:29.379Z,30.70
2018-07-30T11:41:57.281Z,30.70
2018-07-30T11:44:25.156Z,31.70
2018-07-30T11:46:53.052Z,31.10
2018-07-30T11:49:21.005Z,30.70
2018-07-30T11:51:48.894Z,30.20
2018-07-30T11:54:16.879Z,30.70
2018-07-30T11:56:44.770Z,29.90
2018-07-30T11:59:12.590Z,29.50
2018-07-30T12:01:40.513Z,29.60
2018-07-30T12:04:08.403Z,29.00
2018-07-30T12:06:36.269Z,29.30
2018-07-30T12:09:05.959Z,29.10
2018-07-30T12:11:39.510Z,28.40
2018-07-30T12:14:07.376Z,27.40
2018-07-30T12:16:42.961Z,28.40
2018-07-30T12:19:10.781Z,28.20
2018-07-30T12:27:02.590Z,27.60
2018-07-30T12:29:30.495Z,27.40
2018-07-30T12:32:05.625Z,27.00
2018-07-30T12:34:35.521Z,26.50
2018-07-30T12:37:08.480Z,27.20
2018-07-30T12:39:36.685Z,27.60
2018-07-30T12:42:05.612Z,27.90
2018-07-30T12:44:35.517Z,28.80
2018-07-30T12:47:03.385Z,28.80
2018-07-30T12:49:31.216Z,27.90
2018-07-30T12:52:01.064Z,27.50
2018-07-30T12:59:26.142Z,28.80
2018-07-30T13:01:54.086Z,28.70
2018-07-30T13:04:21.969Z,27.90
2018-07-30T13:07:07.047Z,28.30
2018-07-30T13:09:35.276Z,28.30
2018-07-30T13:12:03.154Z,25.80
2018-07-30T13:14:31.243Z,26.70
2018-07-30T13:16:59.174Z,26.50
2018-07-30T13:19:27.026Z,27.30
2018-07-30T13:21:54.824Z,26.60
2018-07-30T13:24:23.447Z,27.20
2018-07-30T13:26:55.215Z,26.80
2018-07-30T13:29:23.454Z,27.50
2018-07-30T13:34:26.152Z,27.30
2018-07-30T13:36:54.258Z,27.60
2018-07-30T13:39:23.310Z,27.00
2018-07-30T13:41:52.539Z,26.30
2018-07-30T13:44:26.226Z,25.80
2018-07-30T13:46:54.222Z,25.50
2018-07-30T13:51:50.551Z,25.20
2018-07-30T13:54:18.476Z,26.40
2018-07-30T13:56:46.296Z,25.30
2018-07-30T13:59:14.020Z,25.60
2018-07-30T14:01:41.958Z,25.70
2018-07-30T14:04:10.192Z,27.10
2018-07-30T14:06:38.843Z,27.10
2018-07-30T14:09:11.007Z,27.20
2018-07-30T14:11:39.148Z,26.70
2018-07-30T14:14:07.671Z,26.30
2018-07-30T14:16:35.515Z,26.60
2018-07-30T14:19:03.815Z,26.60
2018-07-30T14:21:31.656Z,27.00
2018-07-30T14:23:59.484Z,26.30
2018-07-30T14:28:55.143Z,25.10
2018-07-30T14:33:53.023Z,26.20
2018-07-30T14:36:21.816Z,25.00
2018-07-30T14:38:49.746Z,25.30
2018-07-30T14:41:17.681Z,25.50
2018-07-30T14:43:45.606Z,25.30
2018-07-30T14:46:13.479Z,25.30
2018-07-30T14:48:41.683Z,25.50
2018-07-30T14:51:09.693Z,24.80
2018-07-30T14:53:37.591Z,24.40
2018-07-30T14:56:05.875Z,25.50
2018-07-30T14:58:33.687Z,25.00
2018-07-30T15:01:06.953Z,25.20
2018-07-30T15:03:34.822Z,25.60
2018-07-30T15:06:02.703Z,25.10
2018-07-30T15:08:30.429Z,24.30
2018-07-30T15:10:58.228Z,25.60
2018-07-30T15:13:26.108Z,24.80
2018-07-30T15:15:53.917Z,26.20
2018-07-30T15:18:22.530Z,25.70
2018-07-30T15:20:50.427Z,25.40
2018-07-30T15:23:18.340Z,26.00
2018-07-30T15:26:04.790Z,26.20
2018-07-30T15:28:32.620Z,26.90
2018-07-30T15:31:00.519Z,27.20
2018-07-30T15:33:28.428Z,27.40
2018-07-30T15:35:56.383Z,27.40
2018-07-30T15:38:24.356Z,27.30
2018-07-30T15:40:52.168Z,26.70
2018-07-30T15:43:20.119Z,26.50
2018-07-30T15:45:59.367Z,26.60
2018-07-30T15:48:29.084Z,27.00
2018-07-30T15:50:56.911Z,26.60
2018-07-30T15:53:24.769Z,26.70
2018-07-30T15:55:52.593Z,27.30
2018-07-30T15:58:20.299Z,27.50
2018-07-30T16:00:48.233Z,27.80
2018-07-30T16:03:16.059Z,27.80
2018-07-30T16:05:44.545Z,27.40
2018-07-30T16:08:13.394Z,27.50
2018-07-30T16:10:41.606Z,27.50
2018-07-30T16:13:10.428Z,27.20
2018-07-30T16:15:38.461Z,27.00
2018-07-30T16:18:06.880Z,27.70
2018-07-30T16:20:34.785Z,27.50
2018-07-30T16:23:07.213Z,27.80
2018-07-30T16:25:35.161Z,28.10
2018-07-30T16:28:03.066Z,27.70
2018-07-30T16:30:36.602Z,27.90
2018-07-30T16:33:04.569Z,28.10
2018-07-30T16:35:32.533Z,27.90
2018-07-30T16:38:00.422Z,28.30
2018-07-30T16:40:28.241Z,27.90
2018-07-30T16:43:07.631Z,28.30
2018-07-30T16:45:35.451Z,28.50
2018-07-30T16:48:03.399Z,28.40
2018-07-30T16:50:31.283Z,28.50
2018-07-30T16:53:11.153Z,27.90
2018-07-30T16:55:39.079Z,28.60
2018-07-30T16:58:07.005Z,28.60
2018-07-30T17:00:34.952Z,28.80
2018-07-30T17:03:02.769Z,29.00
2018-07-30T17:05:30.562Z,29.10
2018-07-30T17:07:58.507Z,28.10
2018-07-30T17:10:26.259Z,29.00
2018-07-30T17:12:54.421Z,29.20
2018-07-30T17:15:22.247Z,29.20
2018-07-30T17:17:50.187Z,29.20
2018-07-30T17:20:18.124Z,29.50
2018-07-30T17:22:47.872Z,29.80
2018-07-30T17:25:17.847Z,30.20
2018-07-30T17:27:45.784Z,30.20
2018-07-30T17:30:13.862Z,30.00
2018-07-30T17:32:41.807Z,30.50
2018-07-30T17:35:09.685Z,30.90
2018-07-30T17:43:47.202Z,31.30
2018-07-30T17:46:15.082Z,31.20
2018-07-30T17:48:43.114Z,30.50
2018-07-30T17:51:11.013Z,31.20
2018-07-30T17:53:39.357Z,31.40
2018-07-30T17:56:09.490Z,32.00
2018-07-30T17:58:37.355Z,32.70
2018-07-30T18:01:05.318Z,33.60
2018-07-30T18:03:33.331Z,33.60
2018-07-30T18:06:01.449Z,34.20
2018-07-30T18:08:30.480Z,34.20
2018-07-30T18:10:58.875Z,34.50
2018-07-30T18:13:26.877Z,34.20
2018-07-30T18:15:54.939Z,34.20
2018-07-30T18:18:22.858Z,34.50
2018-07-30T18:20:54.474Z,35.00
2018-07-30T18:23:28.904Z,35.20
2018-07-30T18:25:56.777Z,35.60
2018-07-30T18:28:24.812Z,35.70
2018-07-30T18:31:00.772Z,36.10
2018-07-30T18:33:30.804Z,36.30
2018-07-30T18:38:53.228Z,36.70
2018-07-30T18:41:21.088Z,37.00
2018-07-30T18:44:13.129Z,37.30
2018-07-30T18:46:44.813Z,37.60
2018-07-30T18:49:12.624Z,38.40
2018-07-30T18:51:40.486Z,38.60
2018-07-30T18:56:42.501Z,39.30
2018-07-30T18:59:11.603Z,39.30
2018-07-30T19:01:39.758Z,39.60
2018-07-30T19:04:10.089Z,40.00
2018-07-30T19:06:38.232Z,40.40
2018-07-30T19:09:07.830Z,40.60
2018-07-30T19:11:36.170Z,40.70
2018-07-30T19:14:04.777Z,40.90
2018-07-30T19:16:33.676Z,41.60
2018-07-30T19:19:02.931Z,41.80
2018-07-30T19:21:31.375Z,42.10
2018-07-30T19:23:59.658Z,42.30
2018-07-30T19:26:27.918Z,42.70
2018-07-30T19:28:57.466Z,43.30
2018-07-30T19:31:25.773Z,43.20
2018-07-30T19:33:53.882Z,43.30
2018-07-30T19:38:52.608Z,44.00
2018-07-30T19:43:50.229Z,44.70
2018-07-30T19:46:24.086Z,46.00
2018-07-30T19:48:52.092Z,46.10
2018-07-30T19:51:20.438Z,46.40
2018-07-30T19:53:48.596Z,46.70
2018-07-30T19:56:21.365Z,47.10
2018-07-30T19:58:50.908Z,47.40
2018-07-30T20:01:19.818Z,47.40
2018-07-30T20:03:52.565Z,47.40
2018-07-30T20:06:21.817Z,48.40
2018-07-30T20:08:50.985Z,48.20
2018-07-30T20:11:23.831Z,48.60
2018-07-30T20:13:51.888Z,48.80
2018-07-30T20:16:25.503Z,49.50
2018-07-30T20:18:53.639Z,49.80
2018-07-30T20:21:21.846Z,50.20
2018-07-30T20:23:51.979Z,50.20
2018-07-30T20:26:20.116Z,50.40
2018-07-30T20:31:21.531Z,51.30
2018-07-30T20:36:17.788Z,51.20
2018-07-30T20:41:14.155Z,51.20
2018-07-30T20:43:43.336Z,51.70
2018-07-30T20:46:11.486Z,52.00
2018-07-30T20:48:39.572Z,52.50
2018-07-30T20:51:07.503Z,52.40
2018-07-30T20:53:47.513Z,52.90
2018-07-30T20:56:15.520Z,52.80
2018-07-30T20:58:43.612Z,52.70
2018-07-30T21:01:12.051Z,53.20
2018-07-30T21:03:40.014Z,52.80
2018-07-30T21:06:08.056Z,53.00
2018-07-30T21:08:36.479Z,53.00
2018-07-30T21:11:05.140Z,53.40
2018-07-30T21:13:34.197Z,53.80
2018-07-30T21:16:03.803Z,54.20
2018-07-30T21:18:42.992Z,54.50
2018-07-30T21:21:11.171Z,54.60
2018-07-30T21:23:40.480Z,54.60
2018-07-30T21:26:08.629Z,55.10
2018-07-30T21:28:36.595Z,55.50
2018-07-30T21:31:04.490Z,56.00
2018-07-30T21:33:35.865Z,56.00
2018-07-30T21:36:03.796Z,56.10
2018-07-30T21:38:31.863Z,56.30
2018-07-30T21:40:59.765Z,56.70
2018-07-30T21:43:27.588Z,56.60
2018-07-30T21:45:55.441Z,56.60
2018-07-30T21:48:23.290Z,56.80
2018-07-30T21:50:51.163Z,56.90
2018-07-30T21:53:19.059Z,56.80
2018-07-30T21:55:48.051Z,56.80
2018-07-30T21:58:19.378Z,56.90
2018-07-30T22:00:52.963Z,57.20
2018-07-30T22:03:20.847Z,57.40
2018-07-30T22:05:53.358Z,57.80
2018-07-30T22:08:40.597Z,58.00
2018-07-30T22:11:08.565Z,58.20
2018-07-30T22:13:36.403Z,58.60
2018-07-30T22:16:04.219Z,58.50
2018-07-30T22:18:32.093Z,58.50
2018-07-30T22:21:00.243Z,58.90
2018-07-30T22:23:38.742Z,59.20
2018-07-30T22:26:06.551Z,59.30
2018-07-30T22:28:34.430Z,59.40
2018-07-30T22:31:02.714Z,59.50
2018-07-30T22:33:30.642Z,59.20
2018-07-30T22:35:58.489Z,59.10
2018-07-30T22:38:26.410Z,59.10
2018-07-30T22:40:54.247Z,59.30
2018-07-30T22:43:22.171Z,59.60
2018-07-30T22:45:50.074Z,59.70
2018-07-30T22:48:17.937Z,59.90
2018-07-30T22:50:45.718Z,60.00
2018-07-30T22:53:19.699Z,59.70
2018-07-30T22:55:47.520Z,59.90
2018-07-30T22:58:15.378Z,60.10
2018-07-30T23:00:43.415Z,60.50
2018-07-30T23:03:11.181Z,60.60
2018-07-30T23:05:38.906Z,60.50
2018-07-30T23:08:07.620Z,60.70
2018-07-30T23:10:35.620Z,60.90
2018-07-30T23:13:03.548Z,61.30
2018-07-30T23:15:31.414Z,61.30
2018-07-30T23:17:59.393Z,61.10
2018-07-30T23:20:27.163Z,60.90
2018-07-30T23:22:55.220Z,60.80
2018-07-30T23:25:23.414Z,61.10
2018-07-30T23:27:52.736Z,61.30
2018-07-30T23:30:20.566Z,61.40
2018-07-30T23:32:48.772Z,61.60
2018-07-30T23:35:16.669Z,61.80
2018-07-30T23:37:44.468Z,61.80
2018-07-30T23:40:13.161Z,62.20
2018-07-30T23:42:41.059Z,62.20
2018-07-30T23:45:08.938Z,62.40
2018-07-30T23:47:37.400Z,62.60
2018-07-30T23:50:05.295Z,62.80
2018-07-30T23:52:38.140Z,63.00
2018-07-30T23:55:06.109Z,63.10
2018-07-30T23:57:33.876Z,63.40
